createdAt,value
2023-01-23T00:01:11.119Z,17.13
2023-01-23T00:03:38.260Z,16.10
2023-01-23T00:06:07.009Z,16.90
2023-01-23T00:08:34.513Z,18.13
2023-01-23T00:11:04.641Z,19.70
2023-01-23T00:13:31.808Z,18.17
2023-01-23T00:15:59.129Z,20.43
2023-01-23T00:18:26.282Z,20.87
2023-01-23T00:20:53.461Z,19.43
2023-01-23T00:23:20.637Z,19.93
2023-01-23T00:25:47.779Z,18.40
2023-01-23T00:28:14.919Z,20.10
2023-01-23T00:30:42.107Z,20.47
2023-01-23T00:33:10.334Z,22.80
2023-01-23T00:35:37.477Z,20.47
2023-01-23T00:38:04.727Z,20.13
2023-01-23T00:40:31.895Z,22.40
2023-01-23T00:42:59.042Z,23.87
2023-01-23T00:45:26.237Z,19.60
2023-01-23T00:47:53.384Z,20.67
2023-01-23T00:50:20.872Z,19.40
2023-01-23T00:52:48.278Z,17.70
2023-01-23T00:55:15.482Z,18.23
2023-01-23T00:57:42.606Z,19.13
2023-01-23T01:00:10.126Z,16.47
2023-01-23T01:02:37.279Z,16.80
2023-01-23T01:05:04.516Z,16.63
2023-01-23T01:07:31.784Z,17.73
2023-01-23T01:09:58.911Z,18.13
2023-01-23T01:12:26.062Z,17.03
2023-01-23T01:14:53.231Z,16.80
2023-01-23T01:17:20.350Z,16.50
2023-01-23T01:19:47.489Z,16.20
2023-01-23T01:22:14.677Z,16.17
2023-01-23T01:24:42.540Z,15.40
2023-01-23T01:27:09.695Z,16.60
2023-01-23T01:29:36.847Z,15.97
2023-01-23T01:32:04.117Z,16.07
2023-01-23T01:34:31.277Z,15.83
2023-01-23T01:36:58.480Z,16.63
2023-01-23T01:39:25.619Z,16.73
2023-01-23T01:41:52.760Z,16.23
2023-01-23T01:44:20.695Z,17.40
2023-01-23T01:46:49.100Z,17.10
2023-01-23T01:49:17.648Z,16.83
2023-01-23T01:51:46.667Z,16.53
2023-01-23T01:54:23.047Z,16.20
2023-01-23T01:57:04.729Z,15.43
2023-01-23T01:59:34.075Z,15.10
2023-01-23T02:02:06.361Z,15.17
2023-01-23T02:04:36.809Z,15.70
2023-01-23T02:07:04.753Z,14.03
2023-01-23T02:09:33.693Z,16.90
2023-01-23T02:12:01.707Z,17.93
2023-01-23T02:14:28.960Z,18.67
2023-01-23T02:17:01.022Z,17.07
2023-01-23T02:19:48.822Z,17.47
2023-01-23T02:22:19.013Z,18.07
2023-01-23T02:24:53.023Z,18.77
2023-01-23T02:27:20.228Z,20.93
2023-01-23T02:29:48.414Z,21.67
2023-01-23T02:32:15.674Z,19.87
2023-01-23T02:34:42.864Z,20.23
2023-01-23T02:37:10.073Z,26.77
2023-01-23T02:39:37.453Z,21.87
2023-01-23T02:42:04.812Z,19.70
2023-01-23T02:44:32.213Z,18.13
2023-01-23T02:47:03.868Z,17.67
2023-01-23T02:49:31.162Z,16.90
2023-01-23T02:51:59.668Z,18.87
2023-01-23T02:54:26.946Z,21.80
2023-01-23T02:56:54.115Z,22.37
2023-01-23T02:59:40.169Z,23.90
2023-01-23T03:02:08.085Z,18.57
2023-01-23T03:04:35.321Z,16.80
2023-01-23T03:07:02.481Z,18.33
2023-01-23T03:09:29.735Z,18.60
2023-01-23T03:11:56.891Z,18.33
2023-01-23T03:14:24.683Z,17.57
2023-01-23T03:16:53.803Z,18.67
2023-01-23T03:19:23.090Z,17.83
2023-01-23T03:21:50.299Z,17.97
2023-01-23T03:24:17.520Z,20.03
2023-01-23T03:26:45.303Z,17.77
2023-01-23T03:29:33.704Z,16.50
2023-01-23T03:32:00.921Z,14.67
2023-01-23T03:34:28.220Z,16.00
2023-01-23T03:36:55.432Z,17.23
2023-01-23T03:39:41.358Z,16.03
2023-01-23T03:42:08.541Z,15.40
2023-01-23T03:44:35.730Z,16.43
2023-01-23T03:47:02.865Z,16.27
2023-01-23T03:49:30.109Z,17.20
2023-01-23T03:51:57.404Z,18.13
2023-01-23T03:54:24.607Z,18.33
2023-01-23T03:56:51.784Z,17.37
2023-01-23T03:59:18.937Z,16.53
2023-01-23T04:01:46.088Z,15.77
2023-01-23T04:04:13.252Z,14.87
2023-01-23T04:06:40.409Z,15.73
2023-01-23T04:09:07.607Z,15.17
2023-01-23T04:11:34.779Z,15.77
2023-01-23T04:14:01.914Z,20.00
2023-01-23T04:16:29.117Z,18.47
2023-01-23T04:18:56.614Z,17.97
2023-01-23T04:21:24.154Z,20.33
2023-01-23T04:23:51.298Z,17.97
2023-01-23T04:26:18.484Z,19.30
2023-01-23T04:28:45.637Z,19.57
2023-01-23T04:31:12.865Z,15.33
2023-01-23T04:33:40.159Z,14.97
2023-01-23T04:36:07.586Z,16.10
2023-01-23T04:38:34.725Z,17.13
2023-01-23T04:41:01.940Z,15.47
2023-01-23T04:43:29.092Z,11.70
2023-01-23T04:45:56.639Z,12.17
2023-01-23T04:48:24.094Z,13.23
2023-01-23T04:50:51.662Z,11.83
2023-01-23T04:53:18.815Z,11.93
2023-01-23T04:55:48.153Z,18.70
2023-01-23T04:58:15.600Z,16.87
2023-01-23T05:00:42.794Z,11.50
2023-01-23T05:03:10.011Z,11.97
2023-01-23T05:05:37.169Z,11.87
2023-01-23T05:08:04.472Z,13.67
2023-01-23T05:10:31.663Z,15.03
2023-01-23T05:12:58.832Z,17.13
2023-01-23T05:15:25.977Z,17.10
2023-01-23T05:17:53.137Z,13.37
2023-01-23T05:20:20.776Z,11.60
2023-01-23T05:22:54.318Z,10.93
2023-01-23T05:25:21.962Z,11.57
2023-01-23T05:27:49.109Z,11.60
2023-01-23T05:30:16.545Z,11.70
2023-01-23T05:32:43.746Z,11.63
2023-01-23T05:35:10.961Z,11.80
2023-01-23T05:37:38.144Z,13.70
2023-01-23T05:40:06.699Z,11.77
2023-01-23T05:42:33.881Z,11.97
2023-01-23T05:45:01.065Z,11.03
2023-01-23T05:47:28.294Z,12.10
2023-01-23T05:49:55.526Z,11.63
2023-01-23T05:52:22.686Z,11.73
2023-01-23T05:54:50.483Z,12.30
2023-01-23T05:57:17.749Z,11.27
2023-01-23T05:59:44.956Z,12.53
2023-01-23T06:02:12.206Z,11.20
2023-01-23T06:04:39.410Z,12.60
2023-01-23T06:07:06.611Z,11.50
2023-01-23T06:09:33.732Z,12.80
2023-01-23T06:12:00.875Z,11.90
2023-01-23T06:14:28.085Z,11.33
2023-01-23T06:16:55.214Z,11.60
2023-01-23T06:19:22.392Z,12.17
2023-01-23T06:21:49.578Z,12.60
2023-01-23T06:24:16.845Z,13.43
2023-01-23T06:26:43.969Z,13.20
2023-01-23T06:29:11.167Z,13.80
2023-01-23T06:31:38.391Z,18.77
2023-01-23T06:34:05.572Z,18.47
2023-01-23T06:36:32.826Z,14.37
2023-01-23T06:38:59.978Z,15.93
2023-01-23T06:41:27.142Z,14.07
2023-01-23T06:43:54.966Z,16.10
2023-01-23T06:46:22.139Z,24.20
2023-01-23T06:48:49.376Z,23.90
2023-01-23T06:51:16.787Z,19.40
2023-01-23T06:53:43.976Z,19.93
2023-01-23T06:56:11.126Z,20.63
2023-01-23T06:58:38.828Z,23.23
2023-01-23T07:01:09.750Z,13.93
2023-01-23T07:03:36.922Z,15.80
2023-01-23T07:06:07.039Z,16.37
2023-01-23T07:08:34.604Z,16.57
2023-01-23T07:11:01.978Z,19.67
2023-01-23T07:13:29.190Z,23.33
2023-01-23T07:15:56.379Z,27.17
2023-01-23T07:18:23.865Z,24.13
2023-01-23T07:20:51.233Z,29.77
2023-01-23T07:23:18.423Z,17.17
2023-01-23T07:25:45.633Z,17.07
2023-01-23T07:28:12.991Z,19.43
2023-01-23T07:30:40.245Z,18.20
2023-01-23T07:33:07.419Z,19.50
2023-01-23T07:35:34.658Z,28.70
2023-01-23T07:38:01.785Z,30.20
2023-01-23T07:40:29.245Z,38.93
2023-01-23T07:42:57.604Z,37.50
2023-01-23T07:45:24.761Z,30.03
2023-01-23T07:47:51.923Z,27.37
2023-01-23T07:50:19.427Z,27.30
2023-01-23T07:52:46.777Z,27.37
2023-01-23T07:55:14.063Z,25.40
2023-01-23T07:57:41.300Z,26.83
2023-01-23T08:00:08.841Z,26.43
2023-01-23T08:02:35.999Z,24.83
2023-01-23T08:05:03.170Z,27.07
2023-01-23T08:07:30.386Z,24.73
2023-01-23T08:09:57.515Z,26.10
2023-01-23T08:12:24.675Z,23.80
2023-01-23T08:14:51.818Z,23.70
2023-01-23T08:17:18.954Z,19.70
2023-01-23T08:19:46.134Z,18.17
2023-01-23T08:22:13.277Z,17.97
2023-01-23T08:24:40.445Z,18.67
2023-01-23T08:27:07.841Z,20.23
2023-01-23T08:29:35.020Z,23.97
2023-01-23T08:32:02.191Z,26.10
2023-01-23T08:34:29.507Z,26.53
2023-01-23T08:36:56.678Z,33.33
2023-01-23T08:39:24.553Z,32.60
2023-01-23T08:41:51.911Z,32.77
2023-01-23T08:44:19.048Z,28.10
2023-01-23T08:46:46.691Z,21.10
2023-01-23T08:49:13.900Z,25.30
2023-01-23T08:51:41.070Z,31.00
2023-01-23T08:54:08.233Z,31.10
2023-01-23T08:56:35.518Z,29.90
2023-01-23T08:59:02.668Z,28.80
2023-01-23T09:01:29.821Z,26.40
2023-01-23T09:03:57.473Z,24.77
2023-01-23T09:06:24.608Z,24.37
2023-01-23T09:08:51.782Z,21.70
2023-01-23T09:11:19.114Z,21.60
2023-01-23T09:13:46.819Z,21.33
2023-01-23T09:16:14.110Z,20.63
2023-01-23T09:18:41.416Z,25.93
2023-01-23T09:21:09.190Z,23.77
2023-01-23T09:23:36.485Z,22.43
2023-01-23T09:26:07.018Z,21.07
2023-01-23T09:28:34.252Z,19.43
2023-01-23T09:31:05.066Z,20.33
2023-01-23T09:33:32.313Z,17.80
2023-01-23T09:35:59.463Z,17.17
2023-01-23T09:38:27.125Z,18.10
2023-01-23T09:40:55.119Z,18.70
2023-01-23T09:43:26.411Z,17.93
2023-01-23T09:46:02.357Z,15.07
2023-01-23T09:48:33.590Z,21.23
2023-01-23T09:51:05.565Z,22.93
2023-01-23T09:53:36.012Z,29.33
2023-01-23T09:56:07.154Z,30.47
2023-01-23T09:58:38.240Z,23.47
2023-01-23T10:01:05.862Z,20.43
2023-01-23T10:03:33.242Z,24.67
2023-01-23T10:06:17.341Z,21.40
2023-01-23T10:09:00.998Z,17.63
2023-01-23T10:11:37.291Z,16.90
2023-01-23T10:14:04.474Z,12.77
2023-01-23T10:16:51.233Z,13.80
2023-01-23T10:19:21.505Z,16.47
2023-01-23T10:21:48.628Z,14.07
2023-01-23T10:24:26.224Z,13.93
2023-01-23T10:26:53.348Z,12.07
2023-01-23T10:29:30.110Z,12.77
2023-01-23T10:31:58.643Z,14.53
2023-01-23T10:34:25.806Z,15.10
2023-01-23T10:37:01.437Z,17.07
2023-01-23T10:39:30.570Z,15.60
2023-01-23T10:42:02.526Z,13.93
2023-01-23T10:44:30.232Z,14.77
2023-01-23T10:46:58.350Z,13.60
2023-01-23T10:49:39.062Z,14.33
2023-01-23T10:52:06.371Z,14.53
2023-01-23T10:54:33.950Z,14.80
2023-01-23T10:57:07.405Z,17.90
2023-01-23T10:59:35.764Z,19.17
2023-01-23T11:02:15.855Z,23.03
2023-01-23T11:04:43.694Z,21.77
2023-01-23T11:07:27.272Z,25.23
2023-01-23T11:09:54.385Z,30.30
2023-01-23T11:12:21.525Z,24.20
2023-01-23T11:14:48.745Z,32.77
2023-01-23T11:17:25.455Z,29.93
2023-01-23T11:19:54.324Z,20.23
2023-01-23T11:22:25.306Z,14.27
2023-01-23T11:24:52.497Z,13.80
2023-01-23T11:27:20.239Z,12.80
2023-01-23T11:29:59.852Z,12.57
2023-01-23T11:32:27.152Z,12.57
2023-01-23T11:34:57.211Z,12.40
2023-01-23T11:37:27.587Z,14.23
2023-01-23T11:39:55.812Z,14.43
2023-01-23T11:42:24.163Z,13.37
2023-01-23T11:44:51.428Z,13.13
2023-01-23T11:47:42.986Z,13.27
2023-01-23T11:50:19.075Z,13.67
2023-01-23T11:52:57.891Z,13.43
2023-01-23T11:55:37.225Z,15.07
2023-01-23T11:58:07.118Z,16.00
2023-01-23T12:00:34.293Z,15.90
2023-01-23T12:03:40.126Z,16.00
2023-01-23T12:06:21.995Z,24.33
2023-01-23T12:09:07.586Z,23.37
2023-01-23T12:11:53.295Z,29.17
2023-01-23T12:14:28.412Z,24.07
2023-01-23T12:17:01.748Z,21.17
2023-01-23T12:19:47.496Z,41.33
2023-01-23T12:22:29.747Z,73.47
2023-01-23T12:25:11.913Z,34.30
2023-01-23T12:27:44.038Z,22.97
2023-01-23T12:30:29.989Z,37.07
2023-01-23T12:33:03.536Z,34.10
2023-01-23T12:35:32.912Z,40.90
2023-01-23T12:38:18.860Z,40.13
2023-01-23T12:40:48.533Z,39.27
2023-01-23T12:43:18.710Z,38.50
2023-01-23T12:45:49.287Z,44.23
2023-01-23T12:48:33.201Z,51.53
2023-01-23T12:51:06.927Z,38.27
2023-01-23T12:53:36.072Z,42.53
2023-01-23T12:56:09.333Z,41.53
2023-01-23T12:58:37.308Z,34.50
2023-01-23T13:01:21.760Z,34.20
2023-01-23T13:04:10.583Z,31.67
2023-01-23T13:06:44.443Z,29.70
2023-01-23T13:09:18.438Z,26.47
2023-01-23T13:11:46.191Z,25.93
2023-01-23T13:14:32.874Z,38.17
2023-01-23T13:17:04.723Z,64.53
2023-01-23T13:19:51.381Z,96.60
2023-01-23T13:22:31.402Z,64.60
2023-01-23T13:25:17.250Z,135.87
2023-01-23T13:27:47.394Z,75.33
2023-01-23T13:30:26.807Z,70.23
2023-01-23T13:32:53.974Z,40.00
2023-01-23T13:35:39.775Z,28.93
2023-01-23T13:38:22.000Z,37.27
2023-01-23T13:41:14.551Z,23.63
2023-01-23T13:43:50.612Z,25.90
2023-01-23T13:46:26.601Z,26.23
2023-01-23T14:21:41.075Z,20.13
2023-01-23T14:24:22.173Z,26.83
2023-01-23T14:26:50.162Z,27.73
2023-01-23T14:29:20.861Z,21.90
2023-01-23T14:31:48.113Z,23.50
2023-01-23T14:34:17.942Z,21.10
2023-01-23T14:37:05.264Z,25.17
2023-01-23T14:39:33.097Z,32.00
2023-01-23T14:42:02.325Z,34.07
2023-01-23T14:44:45.302Z,43.20
2023-01-23T14:47:19.313Z,27.43
2023-01-23T14:49:48.043Z,21.70
2023-01-23T14:52:30.791Z,25.93
2023-01-23T14:55:03.191Z,34.37
2023-01-23T14:57:34.420Z,32.97
2023-01-23T15:00:01.627Z,15.87
2023-01-23T15:02:31.007Z,32.33
2023-01-23T15:05:13.413Z,16.70
2023-01-23T15:07:51.633Z,16.47
2023-01-23T15:10:22.976Z,22.30
2023-01-23T15:12:50.182Z,22.77
2023-01-23T15:15:21.992Z,19.33
2023-01-23T15:17:49.409Z,20.80
2023-01-23T15:20:46.037Z,25.57
2023-01-23T15:23:18.999Z,30.97
2023-01-23T15:25:54.436Z,25.63
2023-01-23T15:28:48.045Z,21.03
2023-01-23T15:31:22.790Z,26.30
2023-01-23T15:33:50.054Z,25.20
2023-01-23T15:36:23.579Z,21.10
2023-01-23T15:38:50.822Z,17.43
2023-01-23T15:41:30.105Z,21.90
2023-01-23T15:44:01.559Z,22.13
2023-01-23T15:46:28.707Z,19.60
2023-01-23T15:48:55.865Z,29.90
2023-01-23T15:51:23.090Z,40.83
2023-01-23T15:53:50.227Z,34.57
2023-01-23T15:56:25.178Z,35.03
2023-01-23T15:58:52.331Z,22.77
2023-01-23T16:01:19.536Z,18.87
2023-01-23T16:03:46.829Z,42.77
2023-01-23T16:06:18.184Z,28.63
2023-01-23T16:08:46.968Z,38.73
2023-01-23T16:11:17.361Z,39.53
2023-01-23T16:13:44.689Z,43.50
2023-01-23T16:16:18.181Z,34.00
2023-01-23T16:18:45.436Z,32.83
2023-01-23T16:21:15.974Z,31.57
2023-01-23T16:23:47.468Z,27.13
2023-01-23T16:26:21.476Z,31.87
2023-01-23T16:28:48.654Z,21.67
2023-01-23T16:31:16.202Z,21.17
2023-01-23T16:33:43.661Z,20.33
2023-01-23T16:36:13.410Z,23.07
2023-01-23T16:38:40.674Z,25.00
2023-01-23T16:41:07.806Z,29.87
2023-01-23T16:43:35.735Z,24.33
2023-01-23T16:46:03.077Z,26.87
2023-01-23T16:48:30.238Z,27.70
2023-01-23T16:50:58.522Z,28.93
2023-01-23T16:53:26.232Z,22.70
2023-01-23T16:55:54.260Z,15.57
2023-01-23T16:58:25.433Z,22.80
2023-01-23T17:00:52.753Z,42.00
2023-01-23T17:03:23.647Z,21.77
2023-01-23T17:05:50.855Z,29.70
2023-01-23T17:08:18.609Z,56.17
2023-01-23T17:10:47.078Z,36.53
2023-01-23T17:13:14.521Z,89.73
2023-01-23T17:15:41.915Z,98.83
2023-01-23T17:18:10.472Z,31.77
2023-01-23T17:20:39.200Z,99.90
2023-01-23T17:23:07.143Z,54.57
2023-01-23T17:25:36.668Z,156.60
2023-01-23T17:28:12.950Z,77.10
2023-01-23T17:30:40.544Z,43.23
2023-01-23T17:33:09.656Z,64.20
2023-01-23T17:35:37.387Z,100.40
2023-01-23T17:38:04.549Z,153.60
2023-01-23T17:40:31.994Z,137.07
2023-01-23T17:42:59.231Z,80.67
2023-01-23T17:45:27.074Z,136.03
2023-01-23T17:47:54.576Z,100.03
2023-01-23T17:50:23.077Z,45.77
2023-01-23T17:52:50.649Z,131.43
2023-01-23T17:55:25.502Z,104.10
2023-01-23T17:57:52.680Z,70.00
2023-01-23T18:00:20.137Z,54.97
2023-01-23T18:03:07.795Z,86.03
2023-01-23T18:05:34.926Z,53.97
2023-01-23T18:08:02.085Z,34.80
2023-01-23T18:10:29.856Z,38.73
2023-01-23T18:13:08.914Z,42.97
2023-01-23T18:15:36.138Z,45.87
2023-01-23T18:18:03.268Z,39.83
2023-01-23T18:20:31.131Z,31.23
2023-01-23T18:22:58.698Z,71.23
2023-01-23T18:25:31.102Z,58.73
2023-01-23T18:27:59.192Z,61.03
2023-01-23T18:30:35.408Z,45.37
2023-01-23T18:33:08.064Z,43.03
2023-01-23T18:35:53.993Z,93.53
2023-01-23T18:38:34.163Z,80.47
2023-01-23T18:41:10.727Z,39.07
2023-01-23T18:43:39.859Z,47.37
2023-01-23T18:46:14.881Z,49.20
2023-01-23T18:48:42.464Z,38.03
2023-01-23T18:51:25.725Z,48.30
2023-01-23T18:53:55.972Z,38.90
2023-01-23T18:56:25.994Z,27.60
2023-01-23T18:59:12.848Z,37.13
2023-01-23T19:01:40.252Z,41.67
2023-01-23T19:04:14.268Z,44.63
2023-01-23T19:06:41.705Z,47.40
2023-01-23T19:09:27.013Z,46.27
2023-01-23T19:11:56.915Z,41.60
2023-01-23T19:14:28.281Z,42.33
2023-01-23T19:17:24.949Z,42.30
2023-01-23T19:20:00.416Z,42.40
2023-01-23T19:22:27.924Z,44.10
2023-01-23T19:24:55.226Z,30.37
2023-01-23T19:27:23.026Z,32.47
2023-01-23T19:29:50.273Z,22.50
2023-01-23T19:32:17.662Z,28.63
2023-01-23T19:34:44.911Z,27.20
2023-01-23T19:37:12.100Z,42.50
2023-01-23T19:39:39.237Z,45.20
2023-01-23T19:42:06.414Z,41.50
2023-01-23T19:44:33.667Z,33.00
2023-01-23T19:47:02.873Z,36.17
2023-01-23T19:49:30.135Z,35.60
2023-01-23T19:51:57.318Z,30.60
2023-01-23T19:54:24.581Z,28.83
2023-01-23T19:56:51.937Z,27.63
2023-01-23T19:59:19.119Z,29.67
2023-01-23T20:01:48.416Z,26.10
2023-01-23T20:04:19.968Z,24.87
2023-01-23T20:06:48.825Z,26.23
2023-01-23T20:09:16.034Z,35.20
2023-01-23T20:11:43.645Z,34.50
2023-01-23T20:14:11.017Z,34.67
2023-01-23T20:16:40.428Z,27.47
2023-01-23T20:19:07.866Z,22.90
2023-01-23T20:21:35.017Z,22.43
2023-01-23T20:24:02.181Z,27.60
2023-01-23T20:26:29.423Z,31.90
2023-01-23T20:28:58.041Z,27.03
2023-01-23T20:31:25.276Z,26.00
2023-01-23T20:33:52.532Z,32.20
2023-01-23T20:36:19.683Z,27.40
2023-01-23T20:38:46.894Z,22.73
2023-01-23T20:41:15.173Z,32.50
2023-01-23T20:43:45.679Z,93.27
2023-01-23T20:46:13.234Z,87.67
2023-01-23T20:48:41.172Z,55.83
2023-01-23T20:51:09.655Z,38.37
2023-01-23T20:53:39.939Z,41.07
2023-01-23T20:56:10.926Z,31.47
2023-01-23T20:58:57.525Z,38.97
2023-01-23T21:01:26.056Z,47.87
2023-01-23T21:03:53.258Z,39.83
2023-01-23T21:06:20.432Z,43.23
2023-01-23T21:08:47.650Z,48.47
2023-01-23T21:11:15.733Z,78.20
2023-01-23T21:13:42.879Z,39.40
2023-01-23T21:16:13.130Z,51.40
2023-01-23T21:18:44.820Z,45.97
2023-01-23T21:21:13.208Z,75.60
2023-01-23T21:23:40.443Z,85.67
2023-01-23T21:26:07.628Z,54.60
2023-01-23T21:28:35.535Z,48.17
2023-01-23T21:31:12.427Z,65.97
2023-01-23T21:33:40.749Z,86.77
2023-01-23T21:36:08.149Z,62.33
2023-01-23T21:38:35.314Z,65.13
2023-01-23T21:41:02.750Z,48.97
2023-01-23T21:43:29.888Z,33.43
2023-01-23T21:45:57.893Z,54.80
2023-01-23T21:48:25.275Z,69.90
2023-01-23T21:50:52.418Z,55.77
2023-01-23T21:53:19.568Z,35.00
2023-01-23T21:55:51.832Z,59.53
2023-01-23T21:58:18.991Z,54.37
2023-01-23T22:01:05.112Z,75.17
2023-01-23T22:03:35.723Z,45.50
2023-01-23T22:06:02.872Z,65.40
2023-01-23T22:08:30.046Z,55.77
2023-01-23T22:10:57.162Z,45.97
2023-01-23T22:13:24.292Z,42.17
2023-01-23T22:15:51.476Z,39.17
2023-01-23T22:18:18.659Z,50.77
2023-01-23T22:20:45.814Z,42.50
2023-01-23T22:23:13.057Z,38.70
2023-01-23T22:25:40.212Z,33.17
2023-01-23T22:28:07.334Z,34.47
2023-01-23T22:30:34.511Z,27.43
2023-01-23T22:33:01.672Z,24.10
2023-01-23T22:35:28.789Z,28.13
2023-01-23T22:37:55.957Z,27.83
2023-01-23T22:40:23.112Z,20.50
2023-01-23T22:42:50.251Z,20.47
2023-01-23T22:45:17.520Z,23.83
2023-01-23T22:47:44.665Z,27.07
2023-01-23T22:50:12.079Z,24.47
2023-01-23T22:52:39.238Z,25.73
2023-01-23T22:55:06.491Z,25.70
2023-01-23T22:57:33.626Z,33.90
2023-01-23T23:00:00.819Z,38.17
2023-01-23T23:02:27.974Z,35.63
2023-01-23T23:04:55.161Z,27.03
2023-01-23T23:07:22.368Z,26.10
2023-01-23T23:09:49.495Z,29.33
2023-01-23T23:12:16.672Z,28.20
2023-01-23T23:14:43.837Z,25.77
2023-01-23T23:17:11.053Z,24.73
2023-01-23T23:19:38.232Z,23.97
2023-01-23T23:22:05.397Z,20.10
2023-01-23T23:24:32.536Z,23.13
2023-01-23T23:26:59.716Z,22.13
2023-01-23T23:29:26.948Z,20.30
2023-01-23T23:31:54.446Z,19.23
2023-01-23T23:34:21.691Z,19.60
2023-01-23T23:36:48.872Z,18.27
2023-01-23T23:39:16.005Z,21.30
2023-01-23T23:41:43.145Z,21.70
2023-01-23T23:44:10.328Z,17.63
2023-01-23T23:46:37.482Z,17.70
2023-01-23T23:49:04.659Z,17.17
2023-01-23T23:51:31.855Z,15.90
2023-01-23T23:53:59.237Z,20.90
2023-01-23T23:56:27.273Z,21.77
2023-01-23T23:58:54.582Z,13.97
